createdAt,value
2019-02-09T00:01:34.623Z,3.03
2019-02-09T00:04:03.796Z,3.47
2019-02-09T00:06:35.892Z,3.67
2019-02-09T00:09:08.173Z,3.10
2019-02-09T00:11:37.183Z,3.20
2019-02-09T00:14:06.187Z,3.77
2019-02-09T00:16:35.060Z,3.10
2019-02-09T00:19:03.984Z,3.60
2019-02-09T00:21:32.986Z,3.23
2019-02-09T00:24:01.981Z,2.60
2019-02-09T00:26:30.932Z,3.50
2019-02-09T00:29:00.145Z,2.33
2019-02-09T00:31:29.066Z,2.67
2019-02-09T00:33:58.015Z,2.10
2019-02-09T00:36:27.036Z,2.27
2019-02-09T00:38:56.000Z,2.47
2019-02-09T00:41:24.956Z,2.50
2019-02-09T00:43:53.823Z,2.50
2019-02-09T00:46:22.785Z,2.27
2019-02-09T00:48:51.727Z,2.37
2019-02-09T00:51:20.596Z,2.07
2019-02-09T00:53:49.461Z,2.60
2019-02-09T00:56:18.731Z,2.50
2019-02-09T00:58:47.685Z,2.20
2019-02-09T01:01:16.760Z,1.87
2019-02-09T01:03:45.745Z,2.03
2019-02-09T01:06:15.800Z,3.13
2019-02-09T01:08:45.065Z,2.17
2019-02-09T01:11:14.085Z,2.13
2019-02-09T01:13:43.393Z,2.43
2019-02-09T01:16:14.108Z,2.43
2019-02-09T01:18:45.389Z,2.90
2019-02-09T01:21:14.763Z,2.47
2019-02-09T01:23:43.696Z,2.43
2019-02-09T01:26:12.660Z,2.67
2019-02-09T01:28:41.528Z,2.27
2019-02-09T01:31:10.452Z,2.50
2019-02-09T01:33:39.640Z,2.60
2019-02-09T01:36:08.664Z,2.10
2019-02-09T01:38:38.490Z,2.70
2019-02-09T01:41:07.526Z,1.93
2019-02-09T01:43:36.912Z,1.97
2019-02-09T01:46:07.471Z,2.70
2019-02-09T01:48:36.378Z,1.93
2019-02-09T01:51:06.728Z,2.30
2019-02-09T01:53:35.697Z,2.10
2019-02-09T01:56:04.910Z,2.80
2019-02-09T01:58:33.780Z,2.00
2019-02-09T02:01:02.774Z,1.97
2019-02-09T02:03:31.629Z,2.50
2019-02-09T02:06:19.756Z,2.00
2019-02-09T02:08:48.696Z,2.73
2019-02-09T02:11:17.699Z,2.80
2019-02-09T02:13:46.655Z,3.03
2019-02-09T02:16:15.623Z,2.40
2019-02-09T02:19:03.755Z,2.83
2019-02-09T02:21:32.676Z,2.80
2019-02-09T02:24:01.693Z,2.80
2019-02-09T02:26:49.872Z,2.60
2019-02-09T02:29:18.860Z,3.50
2019-02-09T02:31:48.195Z,2.70
2019-02-09T02:34:17.128Z,3.47
2019-02-09T02:36:46.140Z,3.17
2019-02-09T02:39:15.073Z,3.33
2019-02-09T02:41:44.405Z,3.30
2019-02-09T02:44:13.424Z,2.53
2019-02-09T02:46:42.358Z,3.20
2019-02-09T02:49:11.368Z,2.47
2019-02-09T02:51:40.316Z,3.13
2019-02-09T02:54:09.444Z,3.27
2019-02-09T02:56:38.456Z,2.77
2019-02-09T02:59:07.787Z,2.93
2019-02-09T03:01:36.870Z,3.10
2019-02-09T03:04:06.065Z,5.23
2019-02-09T03:06:35.160Z,3.47
2019-02-09T03:09:06.568Z,3.07
2019-02-09T03:11:35.579Z,3.47
2019-02-09T03:14:04.891Z,4.10
2019-02-09T03:16:33.890Z,3.40
2019-02-09T03:19:02.930Z,4.03
2019-02-09T03:21:31.852Z,4.07
2019-02-09T03:24:00.792Z,3.47
2019-02-09T03:26:29.782Z,3.37
2019-02-09T03:29:02.248Z,4.10
2019-02-09T03:31:31.101Z,4.90
2019-02-09T03:33:59.971Z,4.47
2019-02-09T03:36:28.896Z,5.47
2019-02-09T03:38:58.218Z,4.00
2019-02-09T03:41:27.153Z,4.57
2019-02-09T03:43:56.157Z,4.20
2019-02-09T03:46:25.148Z,4.97
2019-02-09T03:48:54.244Z,4.83
2019-02-09T03:51:23.572Z,4.57
2019-02-09T03:53:52.580Z,4.20
2019-02-09T03:56:21.885Z,4.47
2019-02-09T03:58:51.730Z,4.30
2019-02-09T04:01:20.730Z,4.73
2019-02-09T04:03:49.683Z,3.73
2019-02-09T04:06:19.105Z,4.17
2019-02-09T04:08:47.977Z,4.20
2019-02-09T04:11:17.009Z,3.63
2019-02-09T04:13:46.853Z,4.37
2019-02-09T04:16:15.770Z,3.83
2019-02-09T04:18:44.677Z,4.07
2019-02-09T04:21:13.628Z,3.93
2019-02-09T04:23:42.620Z,3.43
2019-02-09T04:26:11.577Z,3.50
2019-02-09T04:28:42.452Z,3.77
2019-02-09T04:31:11.301Z,5.23
2019-02-09T04:33:40.166Z,4.87
2019-02-09T04:36:09.103Z,4.30
2019-02-09T04:38:37.944Z,5.10
2019-02-09T04:41:06.949Z,5.27
2019-02-09T04:43:35.817Z,5.30
2019-02-09T04:46:05.126Z,3.70
2019-02-09T04:48:34.165Z,4.90
2019-02-09T04:51:03.005Z,4.60
2019-02-09T04:53:31.928Z,4.67
2019-02-09T04:56:00.940Z,4.30
2019-02-09T04:58:29.963Z,4.93
2019-02-09T05:00:58.952Z,3.37
2019-02-09T05:03:27.885Z,4.10
2019-02-09T05:05:56.940Z,4.00
2019-02-09T05:08:25.808Z,4.43
2019-02-09T05:10:54.756Z,3.90
2019-02-09T05:13:23.674Z,4.93
2019-02-09T05:15:52.619Z,5.00
2019-02-09T05:18:21.560Z,4.67
2019-02-09T05:20:50.560Z,4.40
2019-02-09T05:23:19.573Z,4.83
2019-02-09T05:25:48.611Z,4.47
2019-02-09T05:28:17.606Z,5.30
2019-02-09T05:30:46.917Z,5.50
2019-02-09T05:33:15.954Z,4.77
2019-02-09T05:35:44.964Z,4.43
2019-02-09T05:38:13.961Z,5.87
2019-02-09T05:40:42.817Z,4.63
2019-02-09T05:43:11.743Z,4.30
2019-02-09T05:45:40.976Z,4.47
2019-02-09T05:48:10.003Z,4.80
2019-02-09T05:50:38.998Z,5.77
2019-02-09T05:53:10.441Z,5.70
2019-02-09T05:55:39.320Z,4.80
2019-02-09T05:58:08.657Z,4.13
2019-02-09T06:00:43.700Z,5.50
2019-02-09T06:03:12.626Z,5.17
2019-02-09T06:05:41.563Z,4.10
2019-02-09T06:08:10.648Z,6.10
2019-02-09T06:10:39.673Z,4.30
2019-02-09T06:13:08.660Z,4.33
2019-02-09T06:15:37.588Z,4.83
2019-02-09T06:18:06.584Z,5.10
2019-02-09T06:20:35.605Z,5.50
2019-02-09T06:23:04.637Z,4.73
2019-02-09T06:25:33.645Z,4.40
2019-02-09T06:28:02.704Z,4.13
2019-02-09T06:30:32.311Z,4.07
2019-02-09T06:33:01.259Z,5.70
2019-02-09T06:35:30.280Z,4.73
2019-02-09T06:37:59.369Z,4.47
2019-02-09T06:40:29.298Z,4.10
2019-02-09T06:42:58.280Z,5.43
2019-02-09T06:45:27.294Z,5.17
2019-02-09T06:48:26.742Z,5.10
2019-02-09T06:50:57.240Z,4.50
2019-02-09T06:53:26.472Z,4.87
2019-02-09T06:55:55.508Z,5.40
2019-02-09T06:58:24.428Z,5.80
2019-02-09T07:00:53.768Z,6.67
2019-02-09T07:03:24.212Z,6.27
2019-02-09T07:05:53.204Z,5.67
2019-02-09T07:08:22.231Z,5.93
2019-02-09T07:10:51.238Z,5.17
2019-02-09T07:13:20.267Z,5.30
2019-02-09T07:15:49.205Z,6.40
2019-02-09T07:18:18.138Z,5.37
2019-02-09T07:20:47.324Z,5.83
2019-02-09T07:23:16.477Z,6.33
2019-02-09T07:25:58.094Z,6.33
2019-02-09T07:28:24.407Z,7.77
2019-02-09T07:30:55.094Z,8.10
2019-02-09T07:33:24.668Z,6.93
2019-02-09T07:35:53.840Z,7.40
2019-02-09T07:38:24.632Z,6.60
2019-02-09T07:40:55.557Z,6.80
2019-02-09T07:43:28.009Z,6.90
2019-02-09T07:46:01.897Z,6.30
2019-02-09T07:48:33.061Z,7.93
2019-02-09T07:51:02.047Z,6.60
2019-02-09T07:53:33.854Z,6.63
2019-02-09T07:56:10.813Z,6.70
2019-02-09T07:58:40.484Z,5.27
2019-02-09T08:01:09.557Z,7.43
2019-02-09T08:03:38.648Z,6.57
2019-02-09T08:06:07.677Z,7.67
2019-02-09T08:08:38.245Z,6.23
2019-02-09T08:11:09.114Z,7.20
2019-02-09T08:13:37.993Z,5.93
2019-02-09T08:16:13.957Z,6.93
2019-02-09T08:18:43.990Z,6.10
2019-02-09T08:21:13.056Z,7.27
2019-02-09T08:23:47.242Z,5.77
2019-02-09T08:26:16.232Z,4.90
2019-02-09T08:28:46.585Z,6.13
2019-02-09T08:31:18.344Z,4.47
2019-02-09T08:33:49.856Z,5.43
2019-02-09T08:36:18.757Z,5.70
2019-02-09T08:38:47.632Z,5.13
2019-02-09T08:41:16.556Z,5.97
2019-02-09T08:44:05.636Z,5.53
2019-02-09T08:46:34.677Z,6.20
2019-02-09T08:49:03.792Z,5.97
2019-02-09T08:51:37.154Z,5.60
2019-02-09T08:54:06.168Z,5.33
2019-02-09T08:56:35.142Z,6.13
2019-02-09T08:59:05.553Z,5.87
2019-02-09T09:01:36.719Z,6.13
2019-02-09T09:04:06.426Z,6.60
2019-02-09T09:06:37.204Z,5.97
2019-02-09T09:09:10.601Z,6.00
2019-02-09T09:11:39.476Z,6.37
2019-02-09T09:14:08.725Z,6.87
2019-02-09T09:16:37.915Z,6.30
2019-02-09T09:19:06.924Z,5.43
2019-02-09T09:21:38.216Z,5.80
2019-02-09T09:24:09.258Z,5.47
2019-02-09T09:26:38.289Z,4.20
2019-02-09T09:29:07.327Z,4.80
2019-02-09T09:31:36.448Z,5.60
2019-02-09T09:34:06.010Z,5.47
2019-02-09T09:36:35.894Z,3.70
2019-02-09T09:39:08.466Z,4.87
2019-02-09T09:41:37.504Z,5.40
2019-02-09T09:44:06.543Z,6.43
2019-02-09T09:46:35.501Z,6.57
2019-02-09T09:49:04.730Z,5.67
2019-02-09T09:51:33.764Z,5.63
2019-02-09T09:54:02.738Z,5.50
2019-02-09T09:56:31.740Z,5.43
2019-02-09T09:59:03.225Z,5.60
2019-02-09T10:01:32.237Z,5.60
2019-02-09T10:04:01.486Z,5.67
2019-02-09T10:06:30.552Z,5.17
2019-02-09T10:08:59.528Z,6.37
2019-02-09T10:11:28.512Z,5.07
2019-02-09T10:13:57.637Z,4.43
2019-02-09T10:16:26.659Z,5.43
2019-02-09T10:18:55.773Z,4.90
2019-02-09T10:21:24.746Z,4.47
2019-02-09T10:23:53.849Z,5.33
2019-02-09T10:26:22.896Z,4.63
2019-02-09T10:29:03.944Z,4.70
2019-02-09T10:31:33.118Z,5.73
2019-02-09T10:34:02.162Z,5.57
2019-02-09T10:36:31.210Z,4.50
2019-02-09T10:39:00.309Z,4.60
2019-02-09T10:41:29.466Z,5.67
2019-02-09T10:43:58.622Z,4.97
2019-02-09T10:46:27.742Z,5.33
2019-02-09T10:48:56.658Z,5.37
2019-02-09T10:51:25.672Z,5.37
2019-02-09T10:53:54.624Z,4.93
2019-02-09T10:56:23.706Z,5.00
2019-02-09T10:58:52.729Z,5.83
2019-02-09T11:01:22.842Z,5.83
2019-02-09T11:03:51.912Z,6.97
2019-02-09T11:06:22.184Z,5.57
2019-02-09T11:08:51.317Z,5.27
2019-02-09T11:11:21.996Z,4.73
2019-02-09T11:13:51.156Z,5.47
2019-02-09T11:16:20.197Z,5.23
2019-02-09T11:18:49.212Z,5.13
2019-02-09T11:21:18.223Z,4.50
2019-02-09T11:23:47.173Z,3.73
2019-02-09T11:26:16.205Z,3.87
2019-02-09T11:28:45.186Z,4.50
2019-02-09T11:31:16.201Z,4.00
2019-02-09T11:33:45.201Z,4.70
2019-02-09T11:36:14.234Z,4.70
2019-02-09T11:38:43.304Z,4.37
2019-02-09T11:41:12.339Z,4.37
2019-02-09T11:43:41.266Z,5.47
2019-02-09T11:46:10.590Z,5.07
2019-02-09T11:48:39.593Z,4.83
2019-02-09T11:51:09.060Z,5.67
2019-02-09T11:53:38.544Z,5.63
2019-02-09T11:56:08.147Z,4.50
2019-02-09T11:58:37.084Z,4.87
2019-02-09T12:01:06.340Z,3.97
2019-02-09T12:03:35.419Z,4.80
2019-02-09T12:06:04.764Z,5.00
2019-02-09T12:08:33.633Z,5.13
2019-02-09T12:11:02.506Z,5.13
2019-02-09T12:13:31.624Z,4.67
2019-02-09T12:16:01.510Z,5.37
2019-02-09T12:18:30.782Z,4.40
2019-02-09T12:21:00.035Z,5.27
2019-02-09T12:23:29.042Z,5.30
2019-02-09T12:25:58.848Z,5.40
2019-02-09T12:28:28.847Z,5.77
2019-02-09T12:30:57.885Z,5.23
2019-02-09T12:33:26.857Z,6.33
2019-02-09T12:35:55.812Z,6.33
2019-02-09T12:38:25.944Z,6.40
2019-02-09T12:40:54.840Z,6.30
2019-02-09T12:43:23.877Z,7.67
2019-02-09T12:45:52.897Z,5.57
2019-02-09T12:48:21.928Z,5.90
2019-02-09T12:50:50.959Z,6.53
2019-02-09T12:53:19.999Z,6.63
2019-02-09T12:55:49.070Z,6.20
2019-02-09T12:58:17.966Z,6.13
2019-02-09T13:00:46.999Z,5.70
2019-02-09T13:03:18.886Z,5.80
2019-02-09T13:05:47.994Z,5.53
2019-02-09T13:08:17.070Z,6.40
2019-02-09T13:10:46.981Z,5.80
2019-02-09T13:13:16.004Z,5.03
2019-02-09T13:15:45.048Z,4.77
2019-02-09T13:18:14.196Z,4.97
2019-02-09T13:20:43.136Z,5.00
2019-02-09T13:23:12.180Z,4.60
2019-02-09T13:25:41.616Z,5.27
2019-02-09T13:28:10.663Z,4.93
2019-02-09T13:30:40.735Z,5.17
2019-02-09T13:33:09.928Z,6.83
2019-02-09T13:35:39.274Z,5.50
2019-02-09T13:38:08.391Z,5.43
2019-02-09T13:40:37.459Z,5.50
2019-02-09T13:43:06.592Z,6.00
2019-02-09T13:45:41.029Z,4.90
2019-02-09T13:48:10.204Z,5.37
2019-02-09T13:50:39.462Z,4.83
2019-02-09T13:53:09.410Z,4.73
2019-02-09T13:55:38.540Z,5.27
2019-02-09T13:58:07.772Z,4.63
2019-02-09T14:00:37.097Z,5.13
2019-02-09T14:03:07.336Z,5.37
2019-02-09T14:05:36.548Z,5.93
2019-02-09T14:08:08.262Z,6.30
2019-02-09T14:10:37.573Z,5.23
2019-02-09T14:13:14.020Z,7.67
2019-02-09T14:15:37.755Z,5.90
2019-02-09T14:18:09.234Z,6.03
2019-02-09T14:20:40.613Z,4.77
2019-02-09T14:23:09.984Z,6.30
2019-02-09T14:25:39.098Z,7.00
2019-02-09T14:28:08.647Z,6.93
2019-02-09T14:30:39.471Z,6.67
2019-02-09T14:33:10.041Z,5.07
2019-02-09T14:35:40.349Z,6.13
2019-02-09T14:38:09.554Z,8.40
2019-02-09T14:40:38.771Z,6.43
2019-02-09T14:43:08.589Z,5.27
2019-02-09T14:45:39.456Z,5.90
2019-02-09T14:48:08.417Z,6.10
2019-02-09T14:50:37.822Z,6.57
2019-02-09T14:53:07.556Z,5.73
2019-02-09T14:55:40.417Z,6.40
2019-02-09T14:58:09.632Z,6.17
2019-02-09T15:00:43.994Z,5.87
2019-02-09T15:03:13.797Z,7.00
2019-02-09T15:05:44.068Z,6.93
2019-02-09T15:08:13.086Z,7.17
2019-02-09T15:10:42.054Z,6.43
2019-02-09T15:13:12.237Z,7.00
2019-02-09T15:16:07.703Z,5.30
2019-02-09T15:18:36.817Z,6.07
2019-02-09T15:21:06.378Z,6.93
2019-02-09T15:23:35.415Z,6.90
2019-02-09T15:26:05.571Z,6.03
2019-02-09T15:28:34.799Z,5.47
2019-02-09T15:31:05.023Z,6.80
2019-02-09T15:33:34.629Z,5.33
2019-02-09T15:36:03.744Z,5.87
2019-02-09T15:38:32.761Z,5.37
2019-02-09T15:41:01.710Z,4.53
2019-02-09T15:43:31.001Z,3.63
2019-02-09T15:45:59.985Z,4.67
2019-02-09T15:48:28.925Z,4.10
2019-02-09T15:50:58.343Z,4.37
2019-02-09T15:53:27.472Z,4.50
2019-02-09T15:55:56.718Z,5.30
2019-02-09T15:58:25.741Z,5.70
2019-02-09T16:00:55.458Z,5.37
2019-02-09T16:03:24.402Z,6.93
2019-02-09T16:05:54.292Z,4.97
2019-02-09T16:08:24.013Z,5.53
2019-02-09T16:10:53.001Z,5.90
2019-02-09T16:13:22.171Z,5.67
2019-02-09T16:15:52.537Z,5.27
2019-02-09T16:18:21.839Z,4.87
2019-02-09T16:20:51.016Z,5.13
2019-02-09T16:23:20.219Z,5.90
2019-02-09T16:25:49.237Z,5.83
2019-02-09T16:28:18.220Z,4.43
2019-02-09T16:30:47.238Z,5.30
2019-02-09T16:33:16.270Z,6.33
2019-02-09T16:35:45.306Z,7.17
2019-02-09T16:38:34.333Z,6.00
2019-02-09T16:41:03.381Z,7.87
2019-02-09T16:43:32.326Z,5.50
2019-02-09T16:46:01.353Z,6.07
2019-02-09T16:48:30.386Z,7.27
2019-02-09T16:51:00.189Z,5.50
2019-02-09T16:53:29.099Z,5.80
2019-02-09T16:55:58.130Z,6.40
2019-02-09T16:58:27.121Z,5.87
2019-02-09T17:00:56.445Z,5.60
2019-02-09T17:03:25.374Z,6.67
2019-02-09T17:05:54.411Z,5.47
2019-02-09T17:08:23.401Z,5.77
2019-02-09T17:10:52.353Z,5.73
2019-02-09T17:13:21.218Z,7.13
2019-02-09T17:15:50.229Z,5.17
2019-02-09T17:18:19.269Z,5.40
2019-02-09T17:20:48.298Z,6.30
2019-02-09T17:23:17.313Z,6.20
2019-02-09T17:25:46.349Z,5.80
2019-02-09T17:28:15.353Z,5.30
2019-02-09T17:30:45.228Z,6.63
2019-02-09T17:33:14.112Z,5.20
2019-02-09T17:35:43.138Z,4.97
2019-02-09T17:38:13.027Z,6.60
2019-02-09T17:40:44.788Z,5.30
2019-02-09T17:43:13.837Z,5.13
2019-02-09T17:45:55.126Z,5.23
2019-02-09T17:48:24.272Z,4.90
2019-02-09T17:50:53.210Z,5.83
2019-02-09T17:53:22.168Z,5.23
2019-02-09T17:55:51.118Z,4.77
2019-02-09T17:58:20.145Z,6.00
2019-02-09T18:00:54.322Z,5.73
2019-02-09T18:03:23.683Z,6.63
2019-02-09T18:05:52.769Z,5.17
2019-02-09T18:08:23.580Z,5.53
2019-02-09T18:10:52.579Z,5.73
2019-02-09T18:13:21.528Z,5.57
2019-02-09T18:15:54.012Z,5.70
2019-02-09T18:18:23.071Z,6.07
2019-02-09T18:20:52.112Z,5.37
2019-02-09T18:23:20.991Z,6.57
2019-02-09T18:25:50.039Z,5.63
2019-02-09T18:28:19.063Z,6.23
2019-02-09T18:30:47.996Z,5.80
2019-02-09T18:33:16.947Z,6.07
2019-02-09T18:35:46.042Z,6.17
2019-02-09T18:38:15.334Z,6.67
2019-02-09T18:40:44.760Z,5.87
2019-02-09T18:43:13.734Z,4.87
2019-02-09T18:45:42.777Z,5.93
2019-02-09T18:48:12.696Z,6.50
2019-02-09T18:50:43.733Z,5.70
2019-02-09T18:53:13.098Z,8.10
2019-02-09T18:55:42.120Z,6.43
2019-02-09T18:58:11.167Z,6.20
2019-02-09T19:00:40.464Z,6.57
2019-02-09T19:03:09.726Z,5.63
2019-02-09T19:05:38.742Z,4.93
2019-02-09T19:08:08.399Z,6.23
2019-02-09T19:10:38.164Z,4.90
2019-02-09T19:13:07.226Z,5.43
2019-02-09T19:15:36.460Z,5.37
2019-02-09T19:18:06.702Z,5.13
2019-02-09T19:20:38.605Z,5.73
2019-02-09T19:23:08.093Z,5.93
2019-02-09T19:25:37.454Z,5.47
2019-02-09T19:28:06.669Z,5.40
2019-02-09T19:30:35.981Z,4.63
2019-02-09T19:33:05.561Z,4.57
2019-02-09T19:35:34.611Z,6.03
2019-02-09T19:38:03.862Z,5.67
2019-02-09T19:40:32.760Z,5.00
2019-02-09T19:43:01.787Z,5.47
2019-02-09T19:45:31.940Z,5.50
2019-02-09T19:48:01.018Z,6.67
2019-02-09T19:50:30.129Z,5.90
2019-02-09T19:52:59.332Z,6.30
2019-02-09T19:55:29.140Z,5.60
2019-02-09T19:57:58.256Z,5.70
2019-02-09T20:00:29.301Z,6.20
2019-02-09T20:02:58.338Z,5.73
2019-02-09T20:05:29.000Z,4.90
2019-02-09T20:07:58.055Z,5.80
2019-02-09T20:10:29.852Z,4.97
2019-02-09T20:12:58.999Z,3.97
2019-02-09T20:15:28.039Z,5.17
2019-02-09T20:17:56.977Z,5.53
2019-02-09T20:20:26.028Z,4.90
2019-02-09T20:22:55.113Z,4.57
2019-02-09T20:25:24.191Z,4.67
2019-02-09T20:27:53.552Z,4.30
2019-02-09T20:30:24.956Z,4.17
2019-02-09T20:32:54.236Z,4.50
2019-02-09T20:35:27.812Z,4.43
2019-02-09T20:37:54.862Z,3.57
2019-02-09T20:40:40.992Z,3.83
2019-02-09T20:43:11.964Z,4.43
2019-02-09T20:45:41.397Z,4.10
2019-02-09T20:48:10.876Z,3.97
2019-02-09T20:50:39.997Z,4.40
2019-02-09T20:53:11.309Z,3.30
2019-02-09T20:55:42.369Z,5.00
2019-02-09T20:58:12.948Z,4.47
2019-02-09T21:00:41.992Z,4.30
2019-02-09T21:03:11.001Z,3.83
2019-02-09T21:05:40.426Z,4.73
2019-02-09T21:08:09.683Z,5.50
2019-02-09T21:10:39.516Z,3.47
2019-02-09T21:13:08.546Z,4.03
2019-02-09T21:15:37.602Z,3.30
2019-02-09T21:18:07.154Z,3.70
2019-02-09T21:20:36.680Z,3.47
2019-02-09T21:23:06.512Z,4.63
2019-02-09T21:25:37.796Z,3.70
2019-02-09T21:28:07.086Z,3.33
2019-02-09T21:30:37.101Z,3.30
2019-02-09T21:33:08.670Z,3.73
2019-02-09T21:35:43.752Z,3.53
2019-02-09T21:38:08.693Z,3.80
2019-02-09T21:40:37.745Z,4.07
2019-02-09T21:43:06.783Z,4.40
2019-02-09T21:45:35.982Z,3.77
2019-02-09T21:48:05.446Z,3.33
2019-02-09T21:50:35.967Z,4.17
2019-02-09T21:53:06.260Z,3.73
2019-02-09T21:55:36.169Z,3.77
2019-02-09T21:58:08.771Z,3.60
2019-02-09T22:00:39.834Z,2.83
2019-02-09T22:03:10.592Z,3.27
2019-02-09T22:05:40.080Z,3.27
2019-02-09T22:08:10.497Z,2.93
2019-02-09T22:10:39.573Z,3.73
2019-02-09T22:13:08.716Z,3.60
2019-02-09T22:15:39.089Z,4.60
2019-02-09T22:18:08.559Z,2.83
2019-02-09T22:20:37.512Z,3.30
2019-02-09T22:23:06.576Z,3.07
2019-02-09T22:25:35.602Z,3.30
2019-02-09T22:28:05.015Z,3.80
2019-02-09T22:30:35.688Z,4.07
2019-02-09T22:33:04.911Z,3.50
2019-02-09T22:35:34.029Z,3.57
2019-02-09T22:38:08.485Z,3.03
2019-02-09T22:40:38.225Z,2.90
2019-02-09T22:43:30.492Z,3.30
2019-02-09T22:45:59.891Z,3.20
2019-02-09T22:48:29.972Z,3.33
2019-02-09T22:50:59.207Z,3.17
2019-02-09T22:53:28.575Z,3.77
2019-02-09T22:55:57.836Z,3.33
2019-02-09T22:58:29.697Z,3.07
2019-02-09T23:01:33.499Z,3.60
2019-02-09T23:04:16.412Z,3.87
2019-02-09T23:07:16.022Z,4.00
2019-02-09T23:09:58.993Z,3.70
2019-02-09T23:12:29.580Z,3.23
2019-02-09T23:14:58.663Z,3.80
2019-02-09T23:17:27.755Z,3.60
2019-02-09T23:19:56.701Z,3.40
2019-02-09T23:22:27.776Z,3.80
2019-02-09T23:24:56.649Z,2.70
2019-02-09T23:27:44.781Z,3.63
2019-02-09T23:30:13.870Z,3.17
2019-02-09T23:32:45.762Z,3.80
2019-02-09T23:35:54.724Z,3.40
2019-02-09T23:38:26.149Z,3.30
2019-02-09T23:40:57.936Z,4.50
2019-02-09T23:43:26.864Z,3.90
2019-02-09T23:45:55.817Z,4.20
2019-02-09T23:48:25.170Z,3.30
2019-02-09T23:50:54.502Z,3.20
2019-02-09T23:53:23.975Z,3.10
2019-02-09T23:55:52.859Z,3.47
2019-02-09T23:58:22.145Z,2.73
